Time,TemperatureF,DewpointF,PressureIn,WindDirection,WindDirectionDegrees,WindSpeedMPH,WindSpeedGustMPH,Humidity,HourlyPrecipIn,Conditions,Clouds,dailyrainin,SolarRadiationWatts/m^2,SoftwareType,DateUTC
2013-05-03 00:02:00,61.0,55.0,-100.00,NE,40,2.0,10.0,81,0.00,,,0.01,0.000000,,2013-05-03 10:02:00,
2013-05-03 00:12:00,61.0,55.0,-100.00,NE,40,2.0,10.0,81,0.00,,,0.01,0.000000,,2013-05-03 10:12:00,
2013-05-03 00:22:00,61.0,55.0,-100.00,NE,40,2.0,10.0,81,0.00,,,0.01,0.000000,,2013-05-03 10:22:00,
2013-05-03 00:32:00,61.0,55.0,-100.00,NE,40,2.0,10.0,81,0.00,,,0.01,0.000000,,2013-05-03 10:32:00,
2013-05-03 01:02:00,60.0,55.0,-100.00,East,90,2.0,8.0,85,0.00,,,0.01,0.000000,,2013-05-03 11:02:00,
2013-05-03 01:11:00,60.0,55.0,-100.00,East,90,2.0,8.0,85,0.00,,,0.01,0.000000,,2013-05-03 11:11:00,
2013-05-03 01:22:00,60.0,55.0,-100.00,East,90,2.0,8.0,85,0.00,,,0.01,0.000000,,2013-05-03 11:22:00,
2013-05-03 01:31:00,60.0,55.0,-100.00,East,90,2.0,8.0,85,0.00,,,0.01,0.000000,,2013-05-03 11:31:00,
2013-05-03 02:01:00,60.0,57.0,-100.00,NNE,31,2.0,4.0,89,0.00,,,0.01,0.000000,,2013-05-03 12:01:00,
2013-05-03 02:11:00,60.0,57.0,-100.00,NNE,31,2.0,4.0,89,0.00,,,0.01,0.000000,,2013-05-03 12:11:00,
2013-05-03 02:21:00,60.0,57.0,-100.00,NNE,31,2.0,4.0,89,0.00,,,0.01,0.000000,,2013-05-03 12:21:00,
2013-05-03 02:32:00,60.0,57.0,-100.00,NNE,31,2.0,4.0,89,0.00,,,0.01,0.000000,,2013-05-03 12:32:00,
2013-05-03 03:01:00,60.0,58.0,-100.00,NW,323,2.0,5.0,92,0.00,,,-99.99,0.000000,,2013-05-03 13:01:00,
2013-05-03 03:11:00,60.0,58.0,-100.00,NW,323,2.0,5.0,92,0.00,,,-99.99,0.000000,,2013-05-03 13:11:00,
2013-05-03 03:22:00,60.0,58.0,-100.00,NW,323,2.0,5.0,92,0.00,,,-99.99,0.000000,,2013-05-03 13:22:00,
2013-05-03 03:31:00,60.0,58.0,-100.00,NW,323,2.0,5.0,92,0.00,,,-99.99,0.000000,,2013-05-03 13:31:00,
2013-05-03 04:02:00,58.0,56.0,-100.00,North,352,2.0,4.0,94,0.00,,,0.01,0.000000,,2013-05-03 14:02:00,
2013-05-03 04:11:00,58.0,56.0,-100.00,North,352,2.0,4.0,94,0.00,,,0.01,0.000000,,2013-05-03 14:11:00,
2013-05-03 04:21:00,58.0,56.0,-100.00,North,352,2.0,4.0,94,0.00,,,0.01,0.000000,,2013-05-03 14:21:00,
2013-05-03 04:31:00,58.0,56.0,-100.00,North,352,2.0,4.0,94,0.00,,,0.01,0.000000,,2013-05-03 14:31:00,
2013-05-03 05:01:00,60.0,59.0,-100.00,SSE,166,1.0,4.0,95,0.00,,,0.01,0.000000,,2013-05-03 15:01:00,
2013-05-03 05:11:00,60.0,59.0,-100.00,SSE,166,1.0,4.0,95,0.00,,,0.01,0.000000,,2013-05-03 15:11:00,
2013-05-03 05:22:00,60.0,59.0,-100.00,SSE,166,1.0,4.0,95,0.00,,,0.01,0.000000,,2013-05-03 15:22:00,
2013-05-03 05:32:00,60.0,59.0,-100.00,SSE,166,1.0,4.0,95,0.00,,,0.01,0.000000,,2013-05-03 15:32:00,
2013-05-03 06:03:00,58.0,57.0,-100.00,NNE,28,2.0,5.0,97,0.00,,,0.01,0.000000,,2013-05-03 16:03:00,
2013-05-03 06:12:00,58.0,57.0,-100.00,NNE,28,2.0,5.0,97,0.00,,,0.01,0.000000,,2013-05-03 16:12:00,
2013-05-03 06:22:00,58.0,57.0,-100.00,NNE,28,2.0,5.0,97,0.00,,,0.01,0.000000,,2013-05-03 16:22:00,
2013-05-03 06:32:00,58.0,57.0,-100.00,NNE,28,2.0,5.0,97,0.00,,,0.01,0.000000,,2013-05-03 16:32:00,
2013-05-03 07:02:00,59.0,58.0,-100.00,NE,43,2.0,5.0,96,0.00,,,0.01,17.000000,,2013-05-03 17:02:00,
2013-05-03 07:12:00,59.0,58.0,-100.00,NE,43,2.0,5.0,96,0.00,,,0.01,17.000000,,2013-05-03 17:12:00,
2013-05-03 07:22:00,59.0,58.0,-100.00,NE,43,2.0,5.0,96,0.00,,,0.01,17.000000,,2013-05-03 17:22:00,
2013-05-03 07:31:00,59.0,58.0,-100.00,NE,43,2.0,5.0,96,0.00,,,0.01,17.000000,,2013-05-03 17:31:00,
2013-05-03 08:01:00,69.0,61.0,-100.00,SE,128,2.0,5.0,76,0.00,,,0.01,235.000000,,2013-05-03 18:01:00,
2013-05-03 08:12:00,69.0,61.0,-100.00,SE,128,2.0,5.0,76,0.00,,,0.01,235.000000,,2013-05-03 18:12:00,
2013-05-03 08:21:00,69.0,61.0,-100.00,SE,128,2.0,5.0,76,0.00,,,0.01,235.000000,,2013-05-03 18:21:00,
2013-05-03 08:31:00,69.0,61.0,-100.00,SE,128,2.0,5.0,76,0.00,,,0.01,235.000000,,2013-05-03 18:31:00,
2013-05-03 09:01:00,71.0,61.0,-100.00,South,169,3.0,7.0,70,0.00,,,0.00,600.000000,,2013-05-03 19:01:00,
2013-05-03 09:11:00,71.0,61.0,-100.00,South,169,3.0,7.0,70,0.00,,,0.00,600.000000,,2013-05-03 19:11:00,
2013-05-03 09:21:00,71.0,61.0,-100.00,South,169,3.0,7.0,70,0.00,,,0.00,600.000000,,2013-05-03 19:21:00,
2013-05-03 09:31:00,71.0,61.0,-100.00,South,169,3.0,7.0,70,0.00,,,0.00,600.000000,,2013-05-03 19:31:00,
2013-05-03 10:02:00,71.0,61.0,-100.00,NW,312,2.0,7.0,71,0.00,,,0.00,451.000000,,2013-05-03 20:02:00,
2013-05-03 10:11:00,71.0,61.0,-100.00,NW,312,2.0,7.0,71,0.00,,,0.00,451.000000,,2013-05-03 20:11:00,
2013-05-03 10:21:00,71.0,61.0,-100.00,NW,312,2.0,7.0,71,0.00,,,0.00,451.000000,,2013-05-03 20:21:00,
2013-05-03 10:31:00,71.0,61.0,-100.00,NW,312,2.0,7.0,71,0.00,,,0.00,451.000000,,2013-05-03 20:31:00,
2013-05-03 11:01:00,72.0,62.0,-100.00,NW,309,2.0,8.0,71,0.00,,,0.00,538.000000,,2013-05-03 21:01:00,
2013-05-03 11:11:00,72.0,62.0,-100.00,NW,309,2.0,8.0,71,0.00,,,0.00,538.000000,,2013-05-03 21:11:00,
2013-05-03 11:21:00,72.0,62.0,-100.00,NW,309,2.0,8.0,71,0.00,,,0.00,538.000000,,2013-05-03 21:21:00,
2013-05-03 11:32:00,72.0,62.0,-100.00,NW,309,2.0,8.0,71,0.00,,,0.00,538.000000,,2013-05-03 21:32:00,
2013-05-03 12:02:00,74.0,61.0,-100.00,SSE,155,3.0,8.0,64,0.00,,,0.00,604.000000,,2013-05-03 22:02:00,
2013-05-03 12:12:00,74.0,61.0,-100.00,SSE,155,3.0,8.0,64,0.00,,,0.00,604.000000,,2013-05-03 22:12:00,
2013-05-03 12:22:00,74.0,61.0,-100.00,SSE,155,3.0,8.0,64,0.00,,,0.00,604.000000,,2013-05-03 22:22:00,
2013-05-03 12:32:00,74.0,61.0,-100.00,SSE,155,3.0,8.0,64,0.00,,,0.00,604.000000,,2013-05-03 22:32:00,
2013-05-03 13:01:00,74.0,59.0,-100.00,North,0,3.0,8.0,60,0.00,,,0.00,769.000000,,2013-05-03 23:01:00,
2013-05-03 13:11:00,74.0,59.0,-100.00,North,0,3.0,8.0,60,0.00,,,0.00,769.000000,,2013-05-03 23:11:00,
2013-05-03 13:21:00,74.0,59.0,-100.00,North,0,3.0,8.0,60,0.00,,,0.00,769.000000,,2013-05-03 23:21:00,
2013-05-03 13:31:00,74.0,59.0,-100.00,North,0,3.0,8.0,60,0.00,,,0.00,769.000000,,2013-05-03 23:31:00,
2013-05-03 14:01:00,76.0,60.0,-100.00,NE,35,3.0,13.0,58,0.00,,,0.00,747.000000,,2013-05-04 00:01:00,
2013-05-03 14:11:00,76.0,60.0,-100.00,NE,35,3.0,13.0,58,0.00,,,0.00,747.000000,,2013-05-04 00:11:00,
2013-05-03 14:22:00,76.0,60.0,-100.00,NE,35,3.0,13.0,58,0.00,,,0.00,747.000000,,2013-05-04 00:22:00,
2013-05-03 14:31:00,76.0,60.0,-100.00,NE,35,3.0,13.0,58,0.00,,,0.00,747.000000,,2013-05-04 00:31:00,
2013-05-03 15:01:00,75.0,60.0,-100.00,ESE,110,3.0,12.0,59,0.00,,,0.00,819.000000,,2013-05-04 01:01:00,
2013-05-03 15:11:00,75.0,60.0,-100.00,ESE,110,3.0,12.0,59,0.00,,,0.00,819.000000,,2013-05-04 01:11:00,
2013-05-03 15:21:00,75.0,60.0,-100.00,ESE,110,3.0,12.0,59,0.00,,,0.00,819.000000,,2013-05-04 01:21:00,
2013-05-03 15:31:00,75.0,60.0,-100.00,ESE,110,3.0,12.0,59,0.00,,,0.00,819.000000,,2013-05-04 01:31:00,
2013-05-03 16:02:00,71.0,59.0,-100.00,NNE,31,2.0,7.0,66,0.00,,,0.00,546.000000,,2013-05-04 02:02:00,
2013-05-03 16:11:00,71.0,59.0,-100.00,NNE,31,2.0,7.0,66,0.00,,,0.00,546.000000,,2013-05-04 02:11:00,
2013-05-03 16:21:00,71.0,59.0,-100.00,NNE,31,2.0,7.0,66,0.00,,,0.00,546.000000,,2013-05-04 02:21:00,
2013-05-03 16:32:00,71.0,59.0,-100.00,NNE,31,2.0,7.0,66,0.00,,,0.00,546.000000,,2013-05-04 02:32:00,
2013-05-03 17:02:00,71.0,60.0,-100.00,SSE,163,3.0,9.0,69,0.00,,,0.00,403.000000,,2013-05-04 03:02:00,
2013-05-03 17:11:00,71.0,60.0,-100.00,SSE,163,3.0,9.0,69,0.00,,,0.00,403.000000,,2013-05-04 03:11:00,
2013-05-03 17:21:00,71.0,60.0,-100.00,SSE,163,3.0,9.0,69,0.00,,,0.00,403.000000,,2013-05-04 03:21:00,
2013-05-03 17:32:00,71.0,60.0,-100.00,SSE,163,3.0,9.0,69,0.00,,,0.00,403.000000,,2013-05-04 03:32:00,
2013-05-03 18:02:00,68.0,61.0,-100.00,WSW,258,1.0,8.0,79,0.00,,,0.00,182.000000,,2013-05-04 04:02:00,
2013-05-03 18:12:00,68.0,61.0,-100.00,WSW,258,1.0,8.0,79,0.00,,,0.00,182.000000,,2013-05-04 04:12:00,
2013-05-03 18:22:00,68.0,61.0,-100.00,WSW,258,1.0,8.0,79,0.00,,,0.00,182.000000,,2013-05-04 04:22:00,
2013-05-03 18:32:00,68.0,61.0,-100.00,WSW,258,1.0,8.0,79,0.00,,,0.00,182.000000,,2013-05-04 04:32:00,
2013-05-03 19:02:00,66.0,62.0,-100.00,SE,126,1.0,6.0,88,0.00,,,0.00,69.000000,,2013-05-04 05:02:00,
2013-05-03 19:11:00,66.0,62.0,-100.00,SE,126,1.0,6.0,88,0.00,,,0.00,69.000000,,2013-05-04 05:11:00,
2013-05-03 19:21:00,66.0,62.0,-100.00,SE,126,1.0,6.0,88,0.00,,,0.00,69.000000,,2013-05-04 05:21:00,
2013-05-03 19:32:00,66.0,62.0,-100.00,SE,126,1.0,6.0,88,0.00,,,0.00,69.000000,,2013-05-04 05:32:00,
2013-05-03 20:01:00,65.0,63.0,-100.00,East,97,1.0,3.0,93,0.00,,,0.00,2.000000,,2013-05-04 06:01:00,
2013-05-03 20:11:00,65.0,63.0,-100.00,East,97,1.0,3.0,93,0.00,,,0.00,2.000000,,2013-05-04 06:11:00,
2013-05-03 20:21:00,65.0,63.0,-100.00,East,97,1.0,3.0,93,0.00,,,0.00,2.000000,,2013-05-04 06:21:00,
2013-05-03 20:32:00,65.0,63.0,-100.00,East,97,1.0,3.0,93,0.00,,,0.00,2.000000,,2013-05-04 06:32:00,
2013-05-03 21:01:00,63.0,62.0,-100.00,NNW,329,1.0,4.0,96,0.00,,,0.00,0.000000,,2013-05-04 07:01:00,
2013-05-03 21:11:00,63.0,62.0,-100.00,NNW,329,1.0,4.0,96,0.00,,,0.00,0.000000,,2013-05-04 07:11:00,
2013-05-03 21:21:00,63.0,62.0,-100.00,NNW,329,1.0,4.0,96,0.00,,,0.00,0.000000,,2013-05-04 07:21:00,
2013-05-03 21:31:00,63.0,62.0,-100.00,NNW,329,1.0,4.0,96,0.00,,,0.00,0.000000,,2013-05-04 07:31:00,
2013-05-03 22:01:00,62.0,62.0,-100.00,NNW,339,2.0,3.0,100,0.00,,,0.00,0.000000,,2013-05-04 08:01:00,
2013-05-03 22:11:00,62.0,62.0,-100.00,NNW,339,2.0,3.0,100,0.00,,,0.00,0.000000,,2013-05-04 08:11:00,
2013-05-03 22:21:00,62.0,62.0,-100.00,NNW,339,2.0,3.0,100,0.00,,,0.00,0.000000,,2013-05-04 08:21:00,
2013-05-03 22:31:00,62.0,62.0,-100.00,NNW,339,2.0,3.0,100,0.00,,,0.00,0.000000,,2013-05-04 08:31:00,
2013-05-03 23:02:00,63.0,62.0,-100.00,NNW,347,2.0,4.0,97,0.00,,,0.00,0.000000,,2013-05-04 09:02:00,
2013-05-03 23:11:00,63.0,62.0,-100.00,NNW,347,2.0,4.0,97,0.00,,,0.00,0.000000,,2013-05-04 09:11:00,
2013-05-03 23:21:00,63.0,62.0,-100.00,NNW,347,2.0,4.0,97,0.00,,,0.00,0.000000,,2013-05-04 09:21:00,
2013-05-03 23:32:00,63.0,62.0,-100.00,NNW,347,2.0,4.0,97,0.00,,,0.00,0.000000,,2013-05-04 09:32:00,